Time;durP1;ratioP1;P1;durP2;ratioP2;P2;SDS_P1;SDS_P2;PMS_P1;PMS_P2;Temp;Humidity;BMP_temperature;BMP_pressure;BME280_temperature;BME280_humidity;BME280_pressure;Samples;Min_cycle;Max_cycle;Signal;HPM_P1;HPM_P2
2023/02/14 00:02:05;;;;;;;9.23;5.83;;;6.30;99.90;;;;;;7380859;19;20426;-82
2023/02/14 00:04:31;;;;;;;9.70;6.15;;;6.20;99.90;;;;;;7382204;19;20366;-79
2023/02/14 00:06:56;;;;;;;8.88;5.68;;;6.10;99.90;;;;;;7384512;19;20320;-79
2023/02/14 00:09:22;;;;;;;7.20;5.70;;;6.10;99.90;;;;;;7386252;19;20335;-80
2023/02/14 00:11:48;;;;;;;8.68;6.18;;;6.20;99.90;;;;;;7384013;19;20421;-81
2023/02/14 00:16:57;;;;;;;7.13;5.53;;;6.10;99.90;;;;;;7280435;19;2004275;-80
2023/02/14 00:19:23;;;;;;;11.35;6.45;;;6.20;99.90;;;;;;7387864;19;20340;-80
2023/02/14 00:21:49;;;;;;;7.78;5.80;;;6.20;99.90;;;;;;7388715;19;20670;-81
2023/02/14 00:24:17;;;;;;;7.70;6.07;;;6.10;99.90;;;;;;7385827;19;20853;-80
2023/02/14 00:26:42;;;;;;;8.18;5.78;;;6.10;99.90;;;;;;7386630;19;20353;-82
2023/02/14 00:29:13;;;;;;;7.57;5.57;;;6.00;99.90;;;;;;7386118;19;20319;-79
2023/02/14 00:31:38;;;;;;;7.13;5.20;;;6.00;99.90;;;;;;7382245;19;20344;-80
2023/02/14 00:34:04;;;;;;;7.68;5.28;;;6.10;99.90;;;;;;7379609;19;20353;-79
2023/02/14 00:36:30;;;;;;;7.63;5.80;;;6.00;99.90;;;;;;7381554;19;20332;-80
2023/02/14 00:38:55;;;;;;;9.10;6.22;;;5.90;99.90;;;;;;7380737;19;20333;-79
2023/02/14 00:41:21;;;;;;;6.77;5.17;;;6.00;99.90;;;;;;7382945;19;20317;-80
2023/02/14 00:43:47;;;;;;;7.10;5.45;;;6.00;99.90;;;;;;7380812;19;20861;-80
2023/02/14 00:46:13;;;;;;;11.07;6.75;;;6.10;99.90;;;;;;7377835;19;20345;-80
2023/02/14 00:48:39;;;;;;;12.32;6.93;;;6.00;99.90;;;;;;7380160;19;20379;-81
2023/02/14 00:51:04;;;;;;;8.77;6.20;;;5.90;99.90;;;;;;7384174;19;20337;-79
2023/02/14 00:53:30;;;;;;;9.23;6.70;;;5.90;99.90;;;;;;7384092;19;20321;-79
2023/02/14 00:55:56;;;;;;;9.10;6.70;;;5.80;99.90;;;;;;7384270;19;20316;-79
2023/02/14 00:58:21;;;;;;;9.45;6.20;;;5.80;99.90;;;;;;7386600;19;20824;-78
2023/02/14 01:00:47;;;;;;;8.73;5.80;;;5.80;99.90;;;;;;7388038;19;20324;-82
2023/02/14 01:03:12;;;;;;;11.07;7.47;;;5.80;99.90;;;;;;7390727;19;20324;-80
2023/02/14 01:05:38;;;;;;;8.38;5.97;;;5.80;99.90;;;;;;7378877;19;20340;-80
2023/02/14 01:08:04;;;;;;;7.87;5.63;;;5.70;99.90;;;;;;7380858;19;20865;-78
2023/02/14 01:10:30;;;;;;;8.45;6.15;;;5.80;99.90;;;;;;7379466;19;20323;-82
2023/02/14 01:12:57;;;;;;;7.28;5.88;;;5.80;99.90;;;;;;7369549;19;20328;-79
2023/02/14 01:15:23;;;;;;;6.72;5.38;;;5.90;99.90;;;;;;7378179;19;20308;-81
2023/02/14 01:17:48;;;;;;;8.40;5.77;;;5.90;99.90;;;;;;7380589;19;20740;-81
2023/02/14 01:20:14;;;;;;;9.55;6.22;;;6.00;99.90;;;;;;7379458;19;20319;-78
2023/02/14 01:22:40;;;;;;;10.07;6.67;;;5.90;99.90;;;;;;7380282;19;20380;-78
2023/02/14 01:25:06;;;;;;;11.48;6.72;;;5.80;99.90;;;;;;7376959;19;20894;-79
2023/02/14 01:27:31;;;;;;;8.55;5.70;;;5.70;99.90;;;;;;7380558;19;20969;-78
2023/02/14 01:29:57;;;;;;;9.37;5.73;;;5.80;99.90;;;;;;7379960;19;20321;-78
2023/02/14 01:32:23;;;;;;;9.20;5.95;;;5.80;99.90;;;;;;7379845;19;20838;-79
2023/02/14 01:34:49;;;;;;;7.57;5.82;;;5.80;99.90;;;;;;7378262;19;20305;-82
2023/02/14 01:37:16;;;;;;;7.90;5.85;;;5.70;99.90;;;;;;7381326;19;20318;-79
2023/02/14 01:39:41;;;;;;;9.57;6.30;;;5.80;99.90;;;;;;7381939;19;20349;-81
2023/02/14 01:42:09;;;;;;;5.97;5.27;;;5.80;99.90;;;;;;7378497;19;20335;-80
2023/02/14 01:44:34;;;;;;;8.02;5.75;;;5.80;99.90;;;;;;7378282;19;20373;-79
2023/02/14 01:47:01;;;;;;;7.10;5.70;;;5.90;99.90;;;;;;7380639;19;20321;-80
2023/02/14 01:49:33;;;;;;;10.77;5.70;;;5.80;99.90;;;;;;7380499;19;20327;-79
2023/02/14 01:52:20;;;;;;;8.50;5.28;;;5.80;99.90;;;;;;7379223;19;20309;-81
2023/02/14 01:54:57;;;;;;;8.57;5.32;;;5.70;99.90;;;;;;7377761;19;20718;-79
2023/02/14 01:57:23;;;;;;;8.35;5.78;;;5.80;99.90;;;;;;7378795;19;20312;-79
2023/02/14 01:59:54;;;;;;;9.77;6.47;;;5.80;99.90;;;;;;7382894;19;20341;-80
2023/02/14 02:02:22;;;;;;;8.50;5.50;;;5.70;99.90;;;;;;7379369;19;20326;-80
2023/02/14 02:04:48;;;;;;;8.93;6.47;;;5.70;99.90;;;;;;7378683;19;20320;-80
2023/02/14 02:07:18;;;;;;;7.75;5.45;;;5.70;99.90;;;;;;7377175;19;20988;-80
2023/02/14 02:09:54;;;;;;;6.88;5.35;;;5.70;99.90;;;;;;7379568;19;20336;-80
2023/02/14 02:12:22;;;;;;;8.27;5.82;;;5.70;99.90;;;;;;7380699;19;20334;-82
2023/02/14 02:14:49;;;;;;;7.13;5.43;;;5.70;99.90;;;;;;7377205;19;20313;-78
2023/02/14 02:17:18;;;;;;;10.70;6.15;;;5.70;99.90;;;;;;7378758;19;20323;-81
2023/02/14 02:20:02;;;;;;;8.85;5.80;;;5.70;99.90;;;;;;7379148;19;20422;-79
2023/02/14 02:22:39;;;;;;;8.57;5.90;;;5.70;99.90;;;;;;7276914;19;2005928;-82
2023/02/14 02:25:32;;;;;;;8.43;6.25;;;5.70;99.90;;;;;;7377566;19;20328;-80
2023/02/14 02:28:07;;;;;;;9.63;5.82;;;5.70;99.90;;;;;;7277612;19;2005894;-81
2023/02/14 02:31:00;;;;;;;9.75;6.05;;;5.70;99.90;;;;;;7380341;19;20321;-79
2023/02/14 02:33:41;;;;;;;8.82;5.60;;;5.60;99.90;;;;;;7274145;19;2019260;-79
2023/02/14 02:36:10;;;;;;;9.77;6.93;;;5.60;99.90;;;;;;7377049;19;20320;-80
2023/02/14 02:38:57;;;;;;;9.70;6.63;;;5.60;99.90;;;;;;7377999;19;20325;-80
2023/02/14 02:41:47;;;;;;;9.85;6.05;;;5.40;99.90;;;;;;7380297;19;20390;-79
2023/02/14 02:44:36;;;;;;;6.25;5.47;;;5.30;99.90;;;;;;7273551;19;2004199;-79
2023/02/14 02:47:29;;;;;;;8.27;5.40;;;5.30;99.90;;;;;;7274747;19;2004404;-79
2023/02/14 02:53:38;;;;;;;8.90;6.43;;;5.20;99.90;;;;;;7174911;19;2004594;-79
2023/02/14 02:59:17;;;;;;;8.00;5.88;;;5.20;99.90;;;;;;7276065;19;2004327;-78
2023/02/14 03:01:56;;;;;;;7.30;5.27;;;5.30;99.90;;;;;;7378087;19;20359;-80
2023/02/14 03:09:52;;;;;;;8.57;6.00;;;5.10;99.90;;;;;;7377196;19;20336;-78
2023/02/14 03:12:33;;;;;;;6.63;5.30;;;5.10;99.90;;;;;;7376271;19;20388;-80
2023/02/14 03:15:07;;;;;;;8.23;5.65;;;5.20;99.90;;;;;;7273369;19;2004196;-78
2023/02/14 03:17:53;;;;;;;9.55;6.50;;;5.20;99.90;;;;;;7378425;19;21610;-81
2023/02/14 03:20:40;;;;;;;9.02;6.20;;;5.20;99.90;;;;;;7377263;19;21121;-81
2023/02/14 03:23:30;;;;;;;7.43;5.53;;;5.30;99.90;;;;;;7278170;19;2004436;-81
2023/02/14 03:26:17;;;;;;;9.37;6.77;;;5.30;99.90;;;;;;7275689;19;2004417;-80
2023/02/14 03:29:04;;;;;;;12.23;6.75;;;5.20;99.90;;;;;;7378010;19;21198;-79
2023/02/14 03:31:54;;;;;;;7.80;5.50;;;5.20;99.90;;;;;;7274107;19;2004625;-80
2023/02/14 03:34:36;;;;;;;8.05;5.15;;;5.30;99.90;;;;;;7379760;19;20360;-84
2023/02/14 03:37:12;;;;;;;7.32;5.55;;;5.30;99.90;;;;;;7283551;19;2004636;-79
2023/02/14 03:39:59;;;;;;;8.00;5.55;;;5.40;99.90;;;;;;7384686;19;20985;-82
2023/02/14 03:42:27;;;;;;;7.80;5.88;;;5.20;99.90;;;;;;7384346;19;20423;-81
2023/02/14 03:44:54;;;;;;;7.50;5.50;;;5.20;99.90;;;;;;7384728;19;20384;-78
2023/02/14 03:47:24;;;;;;;9.98;5.80;;;5.30;99.90;;;;;;7384105;19;20353;-81
2023/02/14 03:50:02;;;;;;;9.10;5.40;;;5.30;99.90;;;;;;7384708;19;20345;-79
2023/02/14 03:52:28;;;;;;;10.05;5.93;;;5.20;99.90;;;;;;7279773;19;2018687;-81
2023/02/14 03:54:54;;;;;;;9.32;5.57;;;5.20;99.90;;;;;;7383739;19;20316;-79
2023/02/14 03:57:23;;;;;;;6.60;5.05;;;5.20;99.90;;;;;;7384116;19;20316;-79
2023/02/14 03:59:48;;;;;;;6.15;4.95;;;5.30;99.90;;;;;;7375840;19;20321;-79
2023/02/14 04:02:21;;;;;;;8.33;4.77;;;5.30;99.90;;;;;;7384368;19;20540;-80
2023/02/14 04:04:47;;;;;;;6.38;4.72;;;5.40;99.90;;;;;;7380410;19;20321;-82
2023/02/14 04:07:15;;;;;;;9.15;5.70;;;5.40;99.90;;;;;;7383977;19;20396;-78
2023/02/14 04:09:41;;;;;;;6.45;4.80;;;5.40;99.90;;;;;;7384175;19;20380;-81
2023/02/14 04:12:07;;;;;;;7.50;5.13;;;5.30;99.90;;;;;;7384943;19;20327;-79
2023/02/14 04:14:32;;;;;;;7.85;5.57;;;5.30;99.90;;;;;;7381186;19;20373;-84
2023/02/14 04:19:42;;;;;;;9.67;6.17;;;5.10;99.90;;;;;;7383489;19;20345;-80
2023/02/14 04:22:08;;;;;;;8.15;5.55;;;5.10;99.90;;;;;;7382434;19;20320;-80
2023/02/14 04:24:33;;;;;;;8.23;5.30;;;5.10;99.90;;;;;;7380122;19;21113;-81
2023/02/14 04:27:11;;;;;;;6.93;5.20;;;5.20;99.90;;;;;;7383128;19;20423;-78
2023/02/14 04:29:41;;;;;;;8.10;5.55;;;5.10;99.90;;;;;;7383201;19;20878;-82
2023/02/14 04:32:08;;;;;;;7.87;5.30;;;5.10;99.90;;;;;;7378758;19;20333;-80
2023/02/14 04:34:34;;;;;;;8.55;5.57;;;5.10;99.90;;;;;;7379916;19;20348;-78
2023/02/14 04:36:59;;;;;;;8.47;5.57;;;5.10;99.90;;;;;;7382015;19;20341;-79
2023/02/14 04:39:25;;;;;;;8.95;5.57;;;5.10;99.90;;;;;;7382095;19;20341;-81
2023/02/14 04:41:51;;;;;;;7.00;5.30;;;5.10;99.90;;;;;;7381708;19;20308;-79
2023/02/14 04:44:16;;;;;;;9.50;5.93;;;5.00;99.90;;;;;;7376174;19;20312;-81
2023/02/14 04:46:42;;;;;;;9.50;6.77;;;5.00;99.90;;;;;;7379640;19;21455;-78
2023/02/14 04:49:07;;;;;;;10.32;5.75;;;5.00;99.90;;;;;;7380882;19;20324;-79
2023/02/14 04:51:33;;;;;;;7.90;5.80;;;5.00;99.90;;;;;;7380530;19;20340;-79
2023/02/14 04:53:59;;;;;;;7.03;5.45;;;5.00;99.90;;;;;;7380907;19;20335;-76
2023/02/14 04:56:25;;;;;;;7.27;5.97;;;5.00;99.90;;;;;;7378240;19;20309;-80
2023/02/14 04:58:52;;;;;;;7.10;5.55;;;5.10;99.90;;;;;;7381373;19;20976;-79
2023/02/14 05:01:17;;;;;;;8.18;5.68;;;5.10;99.90;;;;;;7380606;19;20316;-80
2023/02/14 05:03:43;;;;;;;6.20;4.90;;;5.10;99.90;;;;;;7380941;19;20349;-79
2023/02/14 05:06:08;;;;;;;9.33;5.47;;;5.20;99.90;;;;;;7382720;19;20348;-79
2023/02/14 05:08:34;;;;;;;7.80;5.45;;;5.20;99.90;;;;;;7385109;19;20690;-79
2023/02/14 05:11:00;;;;;;;9.50;6.13;;;5.10;99.90;;;;;;7381329;19;20873;-80
2023/02/14 05:13:25;;;;;;;5.97;5.15;;;5.00;99.90;;;;;;7382339;19;20691;-77
2023/02/14 05:15:51;;;;;;;9.20;6.83;;;5.00;99.90;;;;;;7381465;19;20316;-78
2023/02/14 05:18:16;;;;;;;11.02;7.70;;;4.80;99.90;;;;;;7382627;19;20349;-78
2023/02/14 05:20:42;;;;;;;8.80;6.13;;;4.70;99.90;;;;;;7381743;19;20355;-80
2023/02/14 05:23:12;;;;;;;8.50;6.17;;;4.70;99.90;;;;;;7378834;19;20323;-79
2023/02/14 05:25:41;;;;;;;9.13;6.18;;;4.70;99.90;;;;;;7381124;19;20449;-81
2023/02/14 05:28:06;;;;;;;7.95;5.70;;;4.80;99.90;;;;;;7380437;19;20313;-82
2023/02/14 05:30:32;;;;;;;9.77;5.90;;;4.70;99.90;;;;;;7380581;19;21494;-75
2023/02/14 05:32:57;;;;;;;9.07;6.20;;;4.70;99.90;;;;;;7378065;19;21222;-80
2023/02/14 05:35:23;;;;;;;8.33;6.10;;;4.80;99.90;;;;;;7375466;19;20301;-81
2023/02/14 05:37:49;;;;;;;9.70;5.97;;;4.80;99.90;;;;;;7378401;19;21413;-80
2023/02/14 05:40:15;;;;;;;8.00;6.30;;;4.90;99.90;;;;;;7377137;19;20317;-78
2023/02/14 05:42:41;;;;;;;9.45;6.78;;;4.90;99.90;;;;;;7376441;19;20324;-78
2023/02/14 05:45:07;;;;;;;8.03;6.23;;;4.80;99.90;;;;;;7376039;19;20333;-77
2023/02/14 05:47:33;;;;;;;10.48;6.38;;;4.70;99.90;;;;;;7376383;19;20956;-81
2023/02/14 05:49:58;;;;;;;8.38;6.38;;;4.70;99.90;;;;;;7379720;19;20309;-80
2023/02/14 05:52:24;;;;;;;7.50;5.47;;;4.70;99.90;;;;;;7376804;19;20833;-78
2023/02/14 05:54:49;;;;;;;9.20;6.43;;;4.80;99.90;;;;;;7374128;19;20300;-76
2023/02/14 05:57:15;;;;;;;9.63;6.80;;;4.80;99.90;;;;;;7377834;19;20892;-80
2023/02/14 05:59:41;;;;;;;9.45;6.30;;;4.90;99.90;;;;;;7382158;19;20384;-80
2023/02/14 06:02:06;;;;;;;9.83;7.07;;;4.90;99.90;;;;;;7383680;19;20324;-77
2023/02/14 06:04:32;;;;;;;9.70;6.77;;;4.80;99.90;;;;;;7378675;19;20321;-77
2023/02/14 06:06:57;;;;;;;9.17;6.73;;;4.80;99.90;;;;;;7379587;19;20420;-80
2023/02/14 06:09:23;;;;;;;10.80;6.88;;;4.80;99.90;;;;;;7379976;19;20360;-80
2023/02/14 06:11:49;;;;;;;9.57;7.00;;;4.90;99.90;;;;;;7378779;19;20609;-78
2023/02/14 06:14:14;;;;;;;8.33;5.90;;;4.90;99.90;;;;;;7367194;19;20340;-77
2023/02/14 06:16:40;;;;;;;7.35;5.75;;;4.90;99.90;;;;;;7377183;19;20357;-78
2023/02/14 06:19:05;;;;;;;7.87;5.80;;;4.90;99.90;;;;;;7376077;19;20319;-78
2023/02/14 06:21:31;;;;;;;9.95;6.90;;;5.00;99.90;;;;;;7376655;19;20431;-78
2023/02/14 06:23:56;;;;;;;8.67;6.33;;;5.00;99.90;;;;;;7373943;19;20676;-78
2023/02/14 06:26:26;;;;;;;10.02;6.63;;;5.00;99.90;;;;;;7377058;19;20312;-78
2023/02/14 06:28:56;;;;;;;8.23;6.20;;;5.00;99.90;;;;;;7376439;19;20329;-84
2023/02/14 06:31:21;;;;;;;9.70;6.20;;;5.00;99.90;;;;;;7376114;19;20328;-80
2023/02/14 06:33:47;;;;;;;10.77;7.23;;;5.10;99.90;;;;;;7375849;19;20316;-77
2023/02/14 06:36:13;;;;;;;11.38;7.03;;;5.10;99.90;;;;;;7374422;19;20340;-77
2023/02/14 06:38:38;;;;;;;10.37;6.50;;;5.10;99.90;;;;;;7374450;19;20969;-81
2023/02/14 06:41:05;;;;;;;12.27;8.05;;;5.00;99.90;;;;;;7374855;19;20447;-81
2023/02/14 06:43:30;;;;;;;9.48;6.88;;;4.90;99.90;;;;;;7375089;19;20321;-79
2023/02/14 06:45:56;;;;;;;6.93;6.00;;;4.90;99.90;;;;;;7375411;19;21258;-79
2023/02/14 06:48:21;;;;;;;8.67;6.67;;;4.90;99.90;;;;;;7373934;19;21443;-80
2023/02/14 06:50:47;;;;;;;10.50;7.43;;;4.90;99.90;;;;;;7375578;19;20402;-77
2023/02/14 06:53:12;;;;;;;11.07;7.70;;;4.90;99.90;;;;;;7376111;19;20420;-81
2023/02/14 06:55:38;;;;;;;10.00;7.33;;;4.70;99.90;;;;;;7373267;19;20356;-78
2023/02/14 06:58:03;;;;;;;9.73;6.80;;;4.70;99.90;;;;;;7371368;19;20323;-80
2023/02/14 07:00:29;;;;;;;10.57;6.70;;;4.80;99.90;;;;;;7374108;19;20325;-79
2023/02/14 07:02:55;;;;;;;8.88;6.35;;;4.80;99.90;;;;;;7375353;19;20343;-80
2023/02/14 07:05:21;;;;;;;7.63;5.77;;;4.80;99.90;;;;;;7372462;19;20738;-79
2023/02/14 07:07:46;;;;;;;8.07;6.13;;;4.90;99.90;;;;;;7375969;19;20320;-79
2023/02/14 07:10:12;;;;;;;9.18;6.45;;;5.00;99.90;;;;;;7375989;19;21228;-79
2023/02/14 07:12:38;;;;;;;9.00;6.43;;;5.10;99.90;;;;;;7374945;19;20371;-80
2023/02/14 07:15:06;;;;;;;7.75;6.03;;;5.20;99.90;;;;;;7371993;19;20348;-75
2023/02/14 07:17:31;;;;;;;8.60;6.68;;;5.10;99.90;;;;;;7374528;19;20447;-81
2023/02/14 07:19:57;;;;;;;8.60;6.50;;;5.10;99.90;;;;;;7373457;19;20469;-82
2023/02/14 07:22:23;;;;;;;9.38;6.65;;;5.10;99.90;;;;;;7376127;19;20315;-78
2023/02/14 07:24:48;;;;;;;9.73;7.23;;;5.10;99.90;;;;;;7371497;19;20313;-78
2023/02/14 07:27:14;;;;;;;8.52;6.40;;;5.10;99.90;;;;;;7376572;19;20325;-79
2023/02/14 07:29:39;;;;;;;11.90;6.27;;;5.00;99.90;;;;;;7373854;19;20352;-81
2023/02/14 07:32:05;;;;;;;10.52;7.03;;;5.10;99.90;;;;;;7372010;19;20340;-79
2023/02/14 07:34:30;;;;;;;7.90;6.27;;;5.20;99.90;;;;;;7372216;19;20351;-80
2023/02/14 07:36:56;;;;;;;10.17;6.60;;;5.20;99.90;;;;;;7376821;19;20391;-82
2023/02/14 07:39:22;;;;;;;9.40;6.82;;;5.30;99.90;;;;;;7376477;19;20355;-78
2023/02/14 07:41:47;;;;;;;8.97;6.03;;;5.30;99.90;;;;;;7378796;19;20854;-78
2023/02/14 07:44:17;;;;;;;16.55;9.63;;;5.30;99.90;;;;;;7372726;19;20312;-78
2023/02/14 07:46:43;;;;;;;21.23;12.95;;;5.20;99.90;;;;;;7374916;19;20884;-78
2023/02/14 07:49:08;;;;;;;19.33;12.87;;;5.20;99.90;;;;;;7372587;19;20328;-81
2023/02/14 07:51:34;;;;;;;25.67;16.03;;;5.20;99.90;;;;;;7377320;19;20352;-79
2023/02/14 07:54:02;;;;;;;17.27;10.77;;;5.20;99.90;;;;;;7376246;19;20317;-77
2023/02/14 07:56:27;;;;;;;12.98;7.93;;;5.30;99.90;;;;;;7379394;19;21022;-81
2023/02/14 07:58:53;;;;;;;9.03;6.33;;;5.10;99.90;;;;;;7386371;19;20326;-79
2023/02/14 08:01:21;;;;;;;10.85;6.82;;;5.20;99.90;;;;;;7384793;19;20340;-83
2023/02/14 08:03:50;;;;;;;9.48;6.55;;;5.20;99.90;;;;;;7385505;19;20423;-81
2023/02/14 08:06:18;;;;;;;9.63;6.33;;;5.20;99.90;;;;;;7390499;19;20361;-81
2023/02/14 08:08:44;;;;;;;8.82;7.07;;;5.20;99.90;;;;;;7397841;19;20360;-80
2023/02/14 08:11:10;;;;;;;10.13;7.27;;;5.20;99.90;;;;;;7383016;19;20356;-78
2023/02/14 08:13:36;;;;;;;11.00;7.80;;;5.30;99.90;;;;;;7377082;19;20381;-79
2023/02/14 08:16:04;;;;;;;10.88;8.20;;;5.30;99.90;;;;;;7383286;19;20324;-82
2023/02/14 08:18:32;;;;;;;11.82;8.20;;;5.20;99.90;;;;;;7383464;19;20345;-81
2023/02/14 08:20:58;;;;;;;13.15;8.70;;;5.10;99.90;;;;;;7387417;19;20312;-81
2023/02/14 08:23:23;;;;;;;16.07;8.80;;;5.10;99.90;;;;;;7392128;19;20293;-84
2023/02/14 08:29:26;;;;;;;10.65;7.55;;;5.10;99.90;;;;;;7409753;19;20324;-86
2023/02/14 08:32:29;;;;;;;12.13;8.00;;;5.10;99.90;;;;;;7386743;19;20312;-85
2023/02/14 08:53:12;;;;;;;13.50;9.43;;;5.10;99.90;;;;;;7409262;19;20394;-88
2023/02/14 08:55:37;;;;;;;11.73;8.48;;;5.10;99.90;;;;;;7392724;19;20381;-83
2023/02/14 08:58:03;;;;;;;11.95;8.48;;;5.20;99.90;;;;;;7401001;19;21159;-83
2023/02/14 09:00:29;;;;;;;14.57;9.03;;;5.20;99.90;;;;;;7402377;19;20332;-80
2023/02/14 09:02:55;;;;;;;12.07;8.03;;;5.20;99.90;;;;;;7405276;19;20329;-88
2023/02/14 09:05:22;;;;;;;12.85;7.55;;;5.30;99.90;;;;;;7395877;19;20312;-79
2023/02/14 09:07:48;;;;;;;11.40;7.88;;;5.30;99.90;;;;;;7385891;19;20378;-79
2023/02/14 09:10:14;;;;;;;11.57;7.88;;;5.30;99.90;;;;;;7386566;19;20343;-79
2023/02/14 09:12:41;;;;;;;14.67;9.60;;;5.40;99.90;;;;;;7383671;19;20376;-78
2023/02/14 09:15:08;;;;;;;11.95;8.35;;;5.40;99.90;;;;;;7387424;19;20367;-79
2023/02/14 09:17:34;;;;;;;12.63;8.63;;;5.40;99.90;;;;;;7386553;19;20332;-82
2023/02/14 09:19:59;;;;;;;10.02;7.38;;;5.40;99.90;;;;;;7385716;19;20856;-78
2023/02/14 09:22:25;;;;;;;14.40;8.77;;;5.50;99.90;;;;;;7383830;19;20336;-78
2023/02/14 09:24:50;;;;;;;12.15;8.88;;;5.60;99.90;;;;;;7386221;19;20317;-83
2023/02/14 09:27:16;;;;;;;13.47;8.43;;;5.50;99.90;;;;;;7385258;19;20320;-82
2023/02/14 09:29:42;;;;;;;12.82;8.65;;;5.50;99.90;;;;;;7384588;19;20340;-79
2023/02/14 09:32:07;;;;;;;14.67;9.17;;;5.50;99.90;;;;;;7382867;19;20333;-83
2023/02/14 09:34:33;;;;;;;15.32;9.60;;;5.60;99.90;;;;;;7383104;19;20417;-80
2023/02/14 09:39:43;;;;;;;12.32;9.15;;;5.60;99.90;;;;;;7385010;19;20466;-77
2023/02/14 09:42:19;;;;;;;13.15;9.43;;;5.60;99.90;;;;;;7385092;19;20376;-80
2023/02/14 09:45:07;;;;;;;13.05;8.50;;;5.70;99.90;;;;;;7383724;19;20363;-79
2023/02/14 09:47:43;;;;;;;13.37;8.80;;;5.70;99.90;;;;;;7281616;19;2004350;-79
2023/02/14 09:50:33;;;;;;;13.90;9.85;;;5.80;99.90;;;;;;7384511;19;20337;-78
2023/02/14 09:53:02;;;;;;;12.82;8.35;;;5.80;99.90;;;;;;7280829;19;2004310;-80
2023/02/14 09:55:35;;;;;;;13.23;8.32;;;5.90;99.90;;;;;;7383692;19;20353;-82
2023/02/14 09:58:02;;;;;;;13.25;9.07;;;5.90;99.90;;;;;;7278626;19;2020036;-82
2023/02/14 10:00:33;;;;;;;12.75;7.93;;;5.90;99.90;;;;;;7383172;19;20395;-80
2023/02/14 10:03:08;;;;;;;13.35;8.50;;;5.90;99.90;;;;;;7382402;19;20355;-79
2023/02/14 10:06:00;;;;;;;9.38;7.68;;;5.90;99.90;;;;;;7381230;19;20345;-82
2023/02/14 10:08:43;;;;;;;15.23;9.15;;;6.00;99.90;;;;;;7381972;19;20304;-80
2023/02/14 10:11:11;;;;;;;13.40;8.98;;;6.00;99.90;;;;;;7278512;19;2017454;-79
2023/02/14 10:13:47;;;;;;;12.70;8.57;;;5.90;99.90;;;;;;7381805;19;20357;-81
2023/02/14 10:16:24;;;;;;;12.57;9.02;;;5.90;99.90;;;;;;7380399;19;20337;-79
2023/02/14 10:19:05;;;;;;;14.18;9.38;;;5.90;99.90;;;;;;7380126;19;20317;-80
2023/02/14 10:21:33;;;;;;;14.00;9.48;;;5.90;99.90;;;;;;7278427;19;2004353;-81
2023/02/14 10:24:03;;;;;;;14.00;9.02;;;6.00;99.90;;;;;;7379549;19;20317;-79
2023/02/14 10:26:34;;;;;;;11.95;8.93;;;6.00;99.90;;;;;;7379856;19;20320;-81
2023/02/14 10:29:00;;;;;;;12.52;8.82;;;6.00;99.90;;;;;;7381152;19;20325;-79
2023/02/14 10:31:33;;;;;;;12.70;8.70;;;6.00;99.90;;;;;;7383316;19;20391;-81
2023/02/14 10:41:22;;;;;;;13.45;9.15;;;6.10;99.90;;;;;;7379383;19;20316;-91
2023/02/14 11:26:31;;;;;;;16.88;9.77;;;7.00;99.90;;;;;;7404067;19;20328;-81
2023/02/14 11:29:10;;;;;;;12.25;8.68;;;7.00;99.90;;;;;;7382930;19;20317;-80
2023/02/14 11:31:36;;;;;;;14.25;9.25;;;7.10;99.90;;;;;;7281427;19;2013008;-81
2023/02/14 11:34:14;;;;;;;14.13;8.73;;;7.20;99.90;;;;;;7382606;19;20389;-85
2023/02/14 11:36:41;;;;;;;15.02;9.52;;;7.20;99.90;;;;;;7384437;19;20976;-80
2023/02/14 11:39:17;;;;;;;11.60;8.80;;;7.20;99.90;;;;;;7384397;19;20328;-82
2023/02/14 11:41:51;;;;;;;12.85;8.10;;;7.30;99.90;;;;;;7384644;19;20312;-81
2023/02/14 11:44:21;;;;;;;12.75;9.70;;;7.40;99.90;;;;;;7385315;19;20317;-78
2023/02/14 11:46:50;;;;;;;14.68;9.35;;;7.20;99.90;;;;;;7385162;19;20565;-81
2023/02/14 11:49:31;;;;;;;13.30;8.70;;;7.10;99.90;;;;;;7386135;19;20312;-80
2023/02/14 11:51:59;;;;;;;14.80;9.68;;;7.00;99.90;;;;;;7389443;19;20349;-80
2023/02/14 11:54:28;;;;;;;12.18;8.82;;;6.90;99.90;;;;;;7390080;19;20312;-80
2023/02/14 11:57:18;;;;;;;12.40;8.98;;;7.00;99.90;;;;;;7394974;19;20305;-79
2023/02/14 11:59:49;;;;;;;14.80;9.53;;;7.10;99.90;;;;;;7292734;19;2004369;-82
2023/02/14 12:02:30;;;;;;;15.52;9.98;;;7.10;99.90;;;;;;7394320;19;20332;-82
2023/02/14 12:05:19;;;;;;;15.07;10.02;;;7.10;99.90;;;;;;7387494;19;20354;-80
2023/02/14 12:07:46;;;;;;;16.33;10.50;;;7.10;99.90;;;;;;7297836;19;2004853;-87
2023/02/14 12:10:14;;;;;;;17.50;10.77;;;7.10;99.90;;;;;;7397336;19;20333;-83
2023/02/14 12:13:07;;;;;;;17.85;10.55;;;7.10;99.90;;;;;;7397491;19;20349;-82
2023/02/14 12:15:41;;;;;;;13.00;9.25;;;7.00;99.90;;;;;;7292660;19;2004326;-79
2023/02/14 12:18:36;;;;;;;16.08;10.27;;;7.10;99.90;;;;;;7396647;19;20372;-81
2023/02/14 12:21:45;;;;;;;14.57;9.30;;;7.10;99.90;;;;;;7295808;19;2004520;-79
2023/02/14 12:24:25;;;;;;;12.00;8.98;;;7.20;99.90;;;;;;7294163;19;2004397;-80
2023/02/14 12:27:23;;;;;;;16.13;10.20;;;7.40;99.90;;;;;;7397558;19;20328;-90
2023/02/14 12:29:52;;;;;;;12.20;9.20;;;7.40;99.90;;;;;;7281021;19;2019233;-80
2023/02/14 12:32:25;;;;;;;14.07;10.00;;;7.40;99.90;;;;;;7382430;19;20348;-83
2023/02/14 12:34:52;;;;;;;15.10;9.70;;;7.50;99.90;;;;;;7380157;19;20348;-81
2023/02/14 12:37:29;;;;;;;16.27;10.35;;;7.50;99.90;;;;;;7387221;19;20324;-79
2023/02/14 12:40:31;;;;;;;14.13;10.03;;;7.40;99.90;;;;;;7391996;19;20846;-79
2023/02/14 12:43:30;;;;;;;15.15;9.68;;;7.30;99.90;;;;;;7285133;19;2004252;-80
2023/02/14 12:46:06;;;;;;;14.90;9.97;;;7.20;99.90;;;;;;7285854;19;2004344;-79
2023/02/14 12:48:56;;;;;;;14.45;9.88;;;7.20;99.90;;;;;;7286731;19;2004334;-79
2023/02/14 12:51:43;;;;;;;14.40;9.82;;;7.20;99.90;;;;;;7388373;19;20408;-78
2023/02/14 12:54:46;;;;;;;15.20;9.90;;;7.20;99.90;;;;;;7284137;19;2004569;-80
2023/02/14 12:57:39;;;;;;;13.95;9.07;;;7.40;99.90;;;;;;7279014;19;2004444;-83
2023/02/14 13:00:22;;;;;;;14.27;9.77;;;7.40;99.90;;;;;;7277748;19;2004466;-80
2023/02/14 13:02:53;;;;;;;14.57;9.48;;;7.40;99.90;;;;;;7382787;19;20368;-80
2023/02/14 13:05:33;;;;;;;12.40;9.07;;;7.50;99.90;;;;;;7381974;19;25243;-78
2023/02/14 13:08:05;;;;;;;14.97;10.10;;;7.50;99.90;;;;;;7384697;19;20341;-81
2023/02/14 13:10:39;;;;;;;13.60;8.93;;;7.60;99.90;;;;;;7281837;19;2015316;-81
2023/02/14 13:13:33;;;;;;;12.60;9.43;;;7.60;99.90;;;;;;7385023;19;20335;-79
2023/02/14 13:16:34;;;;;;;13.10;9.35;;;7.70;99.90;;;;;;7283076;19;2019005;-80
2023/02/14 13:19:04;;;;;;;15.30;9.77;;;7.70;99.90;;;;;;7284856;19;2004362;-80
2023/02/14 13:21:32;;;;;;;11.73;8.50;;;7.60;99.90;;;;;;7388547;19;20332;-80
2023/02/14 13:24:20;;;;;;;12.32;9.02;;;7.70;99.90;;;;;;7388038;19;20376;-83
2023/02/14 13:26:48;;;;;;;14.15;9.45;;;7.70;99.90;;;;;;7287562;19;2004377;-81
2023/02/14 13:29:18;;;;;;;12.48;8.88;;;7.80;99.90;;;;;;7387026;19;20324;-79
2023/02/14 13:31:43;;;;;;;14.43;9.35;;;7.90;99.90;;;;;;7386758;19;20364;-80
2023/02/14 13:34:18;;;;;;;14.77;9.33;;;7.80;99.90;;;;;;7384238;19;20399;-80
2023/02/14 13:36:44;;;;;;;14.85;9.15;;;7.80;99.90;;;;;;7386690;19;20377;-77
2023/02/14 13:39:33;;;;;;;13.05;8.48;;;7.80;99.90;;;;;;7387396;19;20359;-79
2023/02/14 13:41:58;;;;;;;12.20;8.77;;;7.80;99.90;;;;;;7386576;19;20345;-80
2023/02/14 13:44:47;;;;;;;12.43;9.37;;;7.90;99.90;;;;;;7386478;19;20321;-78
2023/02/14 13:47:20;;;;;;;13.85;10.02;;;7.70;99.90;;;;;;7286597;19;2004927;-79
2023/02/14 13:50:19;;;;;;;13.63;9.33;;;7.60;99.90;;;;;;7389722;19;20372;-80
2023/02/14 13:52:45;;;;;;;13.45;9.32;;;7.60;99.90;;;;;;7283275;19;2015369;-80
2023/02/14 13:55:17;;;;;;;12.82;9.00;;;7.60;99.90;;;;;;7383156;19;20410;-80
2023/02/14 13:57:42;;;;;;;15.75;10.77;;;7.60;99.90;;;;;;7385176;19;20360;-79
2023/02/14 14:00:17;;;;;;;13.10;9.20;;;7.60;99.90;;;;;;7387474;19;20319;-81
2023/02/14 14:02:43;;;;;;;13.57;9.98;;;7.70;99.90;;;;;;7387906;19;20352;-81
2023/02/14 14:05:28;;;;;;;16.27;11.02;;;7.50;99.90;;;;;;7377207;19;20399;-78
2023/02/14 14:08:30;;;;;;;17.52;10.90;;;7.60;99.90;;;;;;7382393;19;20320;-78
2023/02/14 14:11:01;;;;;;;14.57;8.85;;;7.60;99.90;;;;;;7279570;19;2004211;-80
2023/02/14 14:13:39;;;;;;;15.85;10.27;;;7.60;99.90;;;;;;7381040;19;20337;-80
2023/02/14 14:16:40;;;;;;;15.25;10.05;;;7.80;99.90;;;;;;7279194;19;2004498;-82
2023/02/14 14:19:08;;;;;;;12.60;9.05;;;7.80;99.90;;;;;;7271638;19;2005523;-80
2023/02/14 14:21:38;;;;;;;16.35;10.52;;;7.80;99.90;;;;;;7378967;19;20356;-79
2023/02/14 14:24:23;;;;;;;13.45;9.95;;;7.70;99.90;;;;;;7378183;19;20317;-79
2023/02/14 14:27:01;;;;;;;15.98;9.60;;;7.60;99.90;;;;;;7382179;19;20357;-78
2023/02/14 14:29:36;;;;;;;18.60;10.27;;;7.50;99.90;;;;;;7382797;19;20341;-85
2023/02/14 14:32:28;;;;;;;20.63;11.98;;;7.60;99.90;;;;;;7277313;19;2004215;-79
2023/02/14 14:34:56;;;;;;;15.50;9.27;;;7.30;99.90;;;;;;7380236;19;20316;-79
2023/02/14 14:37:27;;;;;;;13.32;9.55;;;7.40;99.90;;;;;;7385100;19;20368;-78
2023/02/14 14:39:57;;;;;;;11.35;8.38;;;7.40;99.90;;;;;;7385676;19;20315;-82
2023/02/14 14:42:24;;;;;;;13.02;9.75;;;7.50;99.90;;;;;;7385325;19;20308;-83